createdAt,value
2022-10-30T00:00:01.425Z,73.89
2022-10-30T00:02:41.572Z,74.04
2022-10-30T00:05:13.909Z,74.10
2022-10-30T00:07:41.660Z,74.16
2022-10-30T00:10:11.452Z,73.92
2022-10-30T00:12:39.305Z,74.10
2022-10-30T00:15:10.972Z,73.81
2022-10-30T00:17:54.115Z,74.26
2022-10-30T00:20:23.281Z,74.38
2022-10-30T00:22:51.094Z,73.83
2022-10-30T00:25:21.694Z,73.84
2022-10-30T00:27:51.616Z,74.06
2022-10-30T00:30:19.467Z,73.79
2022-10-30T00:32:50.967Z,73.93
2022-10-30T00:35:18.810Z,73.71
2022-10-30T00:37:50.749Z,73.87
2022-10-30T00:40:26.085Z,73.79
2022-10-30T00:42:58.056Z,73.91
2022-10-30T00:45:26.349Z,73.79
2022-10-30T00:47:59.189Z,73.73
2022-10-30T00:50:32.107Z,73.78
2022-10-30T00:53:06.497Z,74.05
2022-10-30T00:55:39.409Z,73.99
2022-10-30T00:58:15.154Z,74.09
2022-10-30T01:00:49.775Z,73.86
2022-10-30T01:03:17.970Z,74.18
2022-10-30T01:05:50.153Z,74.09
2022-10-30T01:08:19.913Z,74.28
2022-10-30T01:10:49.325Z,74.15
2022-10-30T01:13:19.255Z,74.13
2022-10-30T01:16:04.110Z,74.15
2022-10-30T01:18:48.034Z,74.13
2022-10-30T01:21:39.431Z,74.20
2022-10-30T01:24:21.277Z,74.47
2022-10-30T01:26:59.093Z,74.48
2022-10-30T01:29:37.451Z,74.46
2022-10-30T01:32:27.901Z,74.74
2022-10-30T01:35:14.841Z,74.62
2022-10-30T01:37:51.550Z,74.53
2022-10-30T01:40:21.322Z,74.40
2022-10-30T01:42:54.204Z,74.48
2022-10-30T01:45:58.648Z,74.50
2022-10-30T01:49:03.776Z,74.29
2022-10-30T01:51:47.491Z,74.32
2022-10-30T01:54:25.896Z,74.55
2022-10-30T01:57:07.541Z,74.32
2022-10-30T01:59:41.355Z,74.63
2022-10-30T02:02:11.089Z,74.58
2022-10-30T02:04:39.783Z,74.43
2022-10-30T02:07:07.807Z,74.49
2022-10-30T02:09:42.419Z,74.25
2022-10-30T02:12:11.776Z,74.63
2022-10-30T02:14:45.673Z,74.42
2022-10-30T02:17:14.779Z,74.60
2022-10-30T02:19:42.787Z,74.44
2022-10-30T02:22:14.570Z,74.45
2022-10-30T02:24:42.344Z,74.21
2022-10-30T02:27:12.296Z,74.23
2022-10-30T02:29:41.508Z,74.28
2022-10-30T02:32:09.379Z,74.30
2022-10-30T02:34:38.006Z,74.68
2022-10-30T02:37:07.800Z,74.80
2022-10-30T02:39:36.906Z,74.51
2022-10-30T02:42:05.739Z,74.51
2022-10-30T02:44:33.493Z,74.85
2022-10-30T02:47:01.241Z,74.86
2022-10-30T02:49:29.072Z,74.34
2022-10-30T02:51:56.946Z,74.50
2022-10-30T02:54:25.658Z,74.93
2022-10-30T02:56:55.463Z,75.22
2022-10-30T02:59:23.901Z,75.24
2022-10-30T03:01:52.408Z,75.14
2022-10-30T03:04:20.511Z,75.51
2022-10-30T03:06:49.095Z,75.43
2022-10-30T03:09:16.913Z,75.52
2022-10-30T03:11:45.291Z,75.52
2022-10-30T03:14:14.564Z,75.51
2022-10-30T03:16:42.288Z,75.72
2022-10-30T03:19:10.137Z,75.46
2022-10-30T03:21:40.901Z,75.31
2022-10-30T03:24:08.977Z,75.82
2022-10-30T03:26:39.532Z,75.91
2022-10-30T03:29:08.516Z,76.00
2022-10-30T03:31:39.685Z,75.87
2022-10-30T03:34:17.111Z,75.77
2022-10-30T03:36:44.821Z,76.11
2022-10-30T03:39:13.691Z,75.73
2022-10-30T03:41:44.515Z,75.61
2022-10-30T03:44:13.262Z,75.56
2022-10-30T03:46:43.280Z,75.69
2022-10-30T03:49:24.833Z,75.68
2022-10-30T03:51:52.613Z,75.70
2022-10-30T03:54:20.332Z,75.67
2022-10-30T03:56:48.168Z,75.71
2022-10-30T03:59:20.420Z,75.50
2022-10-30T04:02:07.589Z,75.69
2022-10-30T04:04:35.807Z,75.50
2022-10-30T04:07:03.889Z,75.98
2022-10-30T04:09:31.869Z,75.93
2022-10-30T04:12:01.569Z,75.65
2022-10-30T04:14:29.962Z,75.78
2022-10-30T04:16:58.084Z,75.56
2022-10-30T04:19:31.142Z,75.41
2022-10-30T04:21:59.478Z,75.12
2022-10-30T04:24:27.277Z,75.30
2022-10-30T04:26:58.972Z,75.12
2022-10-30T04:29:27.066Z,75.23
2022-10-30T04:32:00.817Z,75.25
2022-10-30T04:34:30.583Z,75.67
2022-10-30T04:37:03.241Z,75.24
2022-10-30T04:39:40.982Z,75.47
2022-10-30T04:42:17.929Z,75.10
2022-10-30T04:44:45.757Z,75.35
2022-10-30T04:47:13.512Z,75.22
2022-10-30T04:49:42.713Z,75.32
2022-10-30T04:52:17.807Z,74.99
2022-10-30T04:54:48.209Z,75.14
2022-10-30T04:57:15.929Z,75.15
2022-10-30T04:59:47.686Z,75.20
2022-10-30T05:02:19.562Z,75.20
2022-10-30T05:04:55.491Z,75.24
2022-10-30T05:07:27.036Z,75.18
2022-10-30T05:09:54.904Z,75.85
2022-10-30T05:12:23.999Z,76.17
2022-10-30T05:14:57.245Z,76.06
2022-10-30T05:20:05.517Z,76.09
2022-10-30T05:22:33.596Z,75.94
2022-10-30T05:25:06.482Z,75.88
2022-10-30T05:27:34.303Z,75.83
2022-10-30T05:30:03.397Z,75.54
2022-10-30T05:32:34.390Z,75.57
2022-10-30T05:35:04.857Z,75.36
2022-10-30T05:37:45.805Z,75.53
2022-10-30T05:40:13.828Z,75.42
2022-10-30T05:42:48.248Z,75.07
2022-10-30T05:45:16.598Z,75.01
2022-10-30T05:47:46.291Z,74.92
2022-10-30T05:50:16.368Z,74.88
2022-10-30T05:52:56.742Z,75.14
2022-10-30T05:55:25.793Z,74.76
2022-10-30T05:58:14.700Z,74.83
2022-10-30T06:00:48.060Z,75.23
2022-10-30T06:03:29.632Z,74.87
2022-10-30T06:06:10.457Z,75.44
2022-10-30T06:08:39.297Z,74.97
2022-10-30T06:11:29.256Z,74.85
2022-10-30T06:14:00.155Z,75.28
2022-10-30T06:16:46.204Z,75.40
2022-10-30T06:19:17.570Z,75.24
2022-10-30T06:21:50.976Z,75.57
2022-10-30T06:24:31.544Z,74.87
2022-10-30T06:27:19.856Z,74.77
2022-10-30T06:29:47.732Z,74.84
2022-10-30T06:32:21.561Z,74.28
2022-10-30T06:34:50.518Z,73.78
2022-10-30T06:37:23.191Z,73.77
2022-10-30T06:39:51.247Z,73.46
2022-10-30T06:42:46.182Z,73.59
2022-10-30T06:45:29.097Z,74.15
2022-10-30T06:47:58.204Z,74.08
2022-10-30T06:50:26.797Z,74.52
2022-10-30T06:52:56.544Z,74.49
2022-10-30T06:55:24.706Z,74.67
2022-10-30T06:58:31.077Z,75.39
2022-10-30T07:01:27.582Z,75.35
2022-10-30T07:04:18.499Z,75.50
2022-10-30T07:06:46.083Z,74.98
2022-10-30T07:09:17.783Z,75.24
2022-10-30T07:11:45.998Z,75.38
2022-10-30T07:14:39.688Z,75.53
2022-10-30T07:17:43.072Z,75.45
2022-10-30T07:20:27.418Z,75.02
2022-10-30T07:22:56.105Z,75.14
2022-10-30T07:25:29.014Z,75.03
2022-10-30T07:28:05.908Z,75.32
2022-10-30T07:31:02.910Z,74.87
2022-10-30T07:33:49.052Z,75.04
2022-10-30T07:36:41.105Z,74.51
2022-10-30T07:39:23.891Z,74.56
2022-10-30T07:42:05.594Z,74.56
2022-10-30T07:48:03.920Z,74.22
2022-10-30T07:51:02.871Z,73.94
2022-10-30T07:53:31.014Z,74.04
2022-10-30T07:55:58.983Z,73.67
2022-10-30T07:58:46.654Z,73.65
2022-10-30T08:02:04.370Z,73.50
2022-10-30T08:04:42.331Z,73.37
2022-10-30T08:07:33.459Z,73.15
2022-10-30T08:10:01.553Z,72.88
2022-10-30T08:12:30.014Z,72.74
2022-10-30T08:14:59.380Z,72.44
2022-10-30T08:17:27.510Z,72.49
2022-10-30T08:19:57.037Z,72.00
2022-10-30T08:22:25.098Z,72.04
2022-10-30T08:25:02.137Z,72.21
2022-10-30T08:27:31.864Z,71.95
2022-10-30T08:30:04.988Z,71.71
2022-10-30T08:32:33.243Z,71.78
2022-10-30T08:35:33.754Z,71.57
2022-10-30T08:38:07.645Z,71.75
2022-10-30T08:40:35.705Z,71.94
2022-10-30T08:43:16.985Z,71.93
2022-10-30T08:45:46.584Z,72.01
2022-10-30T08:48:23.952Z,71.86
2022-10-30T08:50:52.345Z,71.68
2022-10-30T08:53:27.930Z,71.54
2022-10-30T08:55:59.508Z,71.55
2022-10-30T08:58:35.304Z,71.46
2022-10-30T09:01:05.094Z,71.35
2022-10-30T09:03:52.170Z,71.34
2022-10-30T09:06:52.093Z,71.24
2022-10-30T09:09:44.900Z,71.22
2022-10-30T09:12:18.618Z,71.14
2022-10-30T09:14:54.962Z,71.25
2022-10-30T09:17:30.896Z,71.11
2022-10-30T09:20:04.447Z,71.29
2022-10-30T09:22:45.679Z,71.40
2022-10-30T09:25:17.594Z,70.99
2022-10-30T09:27:54.418Z,71.10
2022-10-30T09:30:25.819Z,71.06
2022-10-30T09:32:59.704Z,70.84
2022-10-30T09:35:48.004Z,70.67
2022-10-30T09:38:19.080Z,70.36
2022-10-30T09:41:20.768Z,70.31
2022-10-30T09:44:05.712Z,70.18
2022-10-30T09:46:58.195Z,70.03
2022-10-30T09:50:01.213Z,69.62
2022-10-30T09:52:41.285Z,69.78
2022-10-30T09:55:37.291Z,69.69
2022-10-30T09:58:19.482Z,69.84
2022-10-30T10:00:54.146Z,69.95
2022-10-30T10:03:42.941Z,69.81
2022-10-30T10:06:47.987Z,69.81
2022-10-30T10:10:03.290Z,69.68
2022-10-30T10:13:01.072Z,69.60
2022-10-30T10:15:56.631Z,69.54
2022-10-30T10:21:18.943Z,69.09
2022-10-30T10:23:51.075Z,68.62
2022-10-30T10:26:44.503Z,68.35
2022-10-30T10:29:42.162Z,68.45
2022-10-30T10:32:50.256Z,68.72
2022-10-30T10:35:48.939Z,69.06
2022-10-30T10:38:32.214Z,69.46
2022-10-30T10:41:19.733Z,69.19
2022-10-30T10:44:18.154Z,69.60
2022-10-30T10:47:07.527Z,69.08
2022-10-30T10:49:57.811Z,69.45
2022-10-30T10:52:37.624Z,69.44
2022-10-30T10:55:31.502Z,69.28
2022-10-30T10:58:12.613Z,69.09
2022-10-30T11:00:49.177Z,68.57
2022-10-30T11:03:21.782Z,68.55
2022-10-30T11:05:56.814Z,68.91
2022-10-30T11:08:30.368Z,68.69
2022-10-30T11:11:00.533Z,68.98
2022-10-30T11:13:39.483Z,68.94
2022-10-30T11:16:37.929Z,68.73
2022-10-30T11:19:10.341Z,69.09
2022-10-30T11:21:47.980Z,69.04
2022-10-30T11:24:29.164Z,68.90
2022-10-30T11:27:00.090Z,68.98
2022-10-30T11:29:33.051Z,68.72
2022-10-30T11:32:05.256Z,68.52
2022-10-30T11:34:37.645Z,68.31
2022-10-30T11:37:29.148Z,68.18
2022-10-30T11:40:03.957Z,68.37
2022-10-30T11:42:32.735Z,68.56
2022-10-30T11:45:02.498Z,68.51
2022-10-30T11:47:39.976Z,68.45
2022-10-30T11:50:22.216Z,68.26
2022-10-30T11:52:55.422Z,68.42
2022-10-30T11:55:46.226Z,68.52
2022-10-30T11:58:28.678Z,68.36
2022-10-30T12:01:09.382Z,68.77
2022-10-30T12:03:42.245Z,68.42
2022-10-30T12:06:12.815Z,68.43
2022-10-30T12:08:43.021Z,68.51
2022-10-30T12:11:11.178Z,68.58
2022-10-30T12:13:40.959Z,68.37
2022-10-30T12:16:20.608Z,68.12
2022-10-30T12:18:58.190Z,68.12
2022-10-30T12:21:27.184Z,68.35
2022-10-30T12:24:06.615Z,68.11
2022-10-30T12:26:35.327Z,68.01
2022-10-30T12:29:17.867Z,68.05
2022-10-30T12:31:52.351Z,67.87
2022-10-30T12:34:35.528Z,67.84
2022-10-30T12:37:09.328Z,67.89
2022-10-30T12:39:51.065Z,67.62
2022-10-30T12:42:23.009Z,67.57
2022-10-30T12:44:56.355Z,67.61
2022-10-30T12:47:30.926Z,67.80
2022-10-30T12:50:09.794Z,68.02
2022-10-30T12:52:43.413Z,68.09
2022-10-30T12:55:17.296Z,65.91
2022-10-30T12:57:50.810Z,67.89
2022-10-30T13:00:25.790Z,67.87
2022-10-30T13:03:16.899Z,67.82
2022-10-30T13:08:28.735Z,67.96
2022-10-30T13:11:04.753Z,67.85
2022-10-30T13:13:39.921Z,68.15
2022-10-30T13:16:22.572Z,68.17
2022-10-30T13:18:56.188Z,68.40
2022-10-30T13:21:30.710Z,68.43
2022-10-30T13:24:04.555Z,68.15
2022-10-30T13:26:40.410Z,68.04
2022-10-30T13:29:16.933Z,68.31
2022-10-30T13:32:14.251Z,67.40
2022-10-30T13:34:55.426Z,67.85
2022-10-30T13:37:41.772Z,67.54
2022-10-30T13:40:19.432Z,67.83
2022-10-30T13:43:06.169Z,68.08
2022-10-30T13:46:03.200Z,68.14
2022-10-30T13:48:51.960Z,68.36
2022-10-30T13:51:41.397Z,68.59
2022-10-30T13:54:20.897Z,68.49
2022-10-30T13:56:53.809Z,68.44
2022-10-30T13:59:36.397Z,68.44
2022-10-30T14:02:17.589Z,68.13
2022-10-30T14:04:53.963Z,68.01
2022-10-30T14:07:34.655Z,68.06
2022-10-30T14:10:09.841Z,68.31
2022-10-30T14:13:08.478Z,68.30
2022-10-30T14:15:43.725Z,68.59
2022-10-30T14:18:30.075Z,68.39
2022-10-30T14:20:59.370Z,68.20
2022-10-30T14:23:33.884Z,68.24
2022-10-30T14:26:15.974Z,68.12
2022-10-30T14:28:45.926Z,68.15
2022-10-30T14:31:17.594Z,68.42
2022-10-30T14:33:52.952Z,68.24
2022-10-30T14:36:23.820Z,68.43
2022-10-30T14:39:00.829Z,68.58
2022-10-30T14:41:41.832Z,68.63
2022-10-30T14:44:21.250Z,68.55
2022-10-30T14:47:04.856Z,68.68
2022-10-30T14:49:45.772Z,68.67
2022-10-30T14:52:24.859Z,68.63
2022-10-30T14:55:04.838Z,68.57
2022-10-30T14:57:48.239Z,68.76
2022-10-30T15:00:39.075Z,68.90
2022-10-30T15:03:10.065Z,68.88
2022-10-30T15:05:47.603Z,69.01
2022-10-30T15:08:28.778Z,69.08
2022-10-30T15:11:18.189Z,69.27
2022-10-30T15:13:49.927Z,69.40
2022-10-30T15:16:20.072Z,69.69
2022-10-30T15:18:55.792Z,69.67
2022-10-30T15:21:29.285Z,69.97
2022-10-30T15:23:59.681Z,69.96
2022-10-30T15:26:35.639Z,70.00
2022-10-30T15:29:19.322Z,70.18
2022-10-30T15:31:58.486Z,70.27
2022-10-30T15:34:27.739Z,70.25
2022-10-30T15:36:58.449Z,70.29
2022-10-30T15:39:26.229Z,70.21
2022-10-30T15:41:58.107Z,70.29
2022-10-30T15:44:28.332Z,70.08
2022-10-30T15:47:03.845Z,70.28
2022-10-30T15:49:34.332Z,70.21
2022-10-30T15:52:21.789Z,70.21
2022-10-30T15:54:54.473Z,70.44
2022-10-30T15:57:57.387Z,70.67
2022-10-30T16:00:24.420Z,70.72
2022-10-30T16:03:01.329Z,70.76
2022-10-30T16:05:33.600Z,71.00
2022-10-30T16:08:03.242Z,71.22
2022-10-30T16:10:46.534Z,71.40
2022-10-30T16:13:32.061Z,71.54
2022-10-30T16:16:01.397Z,71.89
2022-10-30T16:18:32.534Z,72.15
2022-10-30T16:21:03.738Z,72.60
2022-10-30T16:23:38.010Z,72.62
2022-10-30T16:26:06.132Z,72.68
2022-10-30T16:28:38.821Z,72.74
2022-10-30T16:31:09.978Z,72.66
2022-10-30T16:33:38.803Z,72.71
2022-10-30T16:36:08.320Z,72.68
2022-10-30T16:38:38.828Z,72.54
2022-10-30T16:41:13.302Z,72.46
2022-10-30T16:43:44.744Z,72.48
2022-10-30T16:46:38.976Z,72.32
2022-10-30T16:49:14.950Z,72.60
2022-10-30T16:51:44.130Z,72.81
2022-10-30T16:54:21.494Z,73.01
2022-10-30T16:56:51.930Z,73.27
2022-10-30T16:59:28.777Z,73.29
2022-10-30T17:02:06.687Z,73.48
2022-10-30T17:04:45.208Z,73.51
2022-10-30T17:07:25.376Z,73.68
2022-10-30T17:09:58.524Z,73.71
2022-10-30T17:12:30.638Z,73.68
2022-10-30T17:15:17.960Z,73.98
2022-10-30T17:18:13.245Z,73.99
2022-10-30T17:20:41.079Z,74.33
2022-10-30T17:23:17.690Z,74.32
2022-10-30T17:25:45.929Z,74.49
2022-10-30T17:28:27.865Z,74.49
2022-10-30T17:30:57.464Z,74.70
2022-10-30T17:33:35.304Z,74.54
2022-10-30T17:36:03.952Z,74.78
2022-10-30T17:38:31.874Z,74.72
2022-10-30T17:40:59.954Z,74.72
2022-10-30T17:43:30.460Z,74.82
2022-10-30T17:45:59.716Z,74.83
2022-10-30T17:48:29.868Z,74.56
2022-10-30T17:50:57.722Z,74.58
2022-10-30T17:53:28.050Z,74.54
2022-10-30T17:56:01.775Z,74.12
2022-10-30T17:58:30.852Z,73.67
2022-10-30T18:01:00.731Z,73.78
2022-10-30T18:03:28.747Z,73.71
2022-10-30T18:05:58.292Z,73.84
2022-10-30T18:08:26.196Z,73.86
2022-10-30T18:10:56.999Z,73.79
2022-10-30T18:13:26.874Z,73.78
2022-10-30T18:15:57.018Z,73.70
2022-10-30T18:18:26.168Z,73.64
2022-10-30T18:20:53.972Z,73.54
2022-10-30T18:23:51.808Z,73.80
2022-10-30T18:26:16.482Z,73.90
2022-10-30T18:28:44.766Z,73.82
2022-10-30T18:31:13.982Z,73.77
2022-10-30T18:33:50.702Z,73.34
2022-10-30T18:36:20.166Z,73.45
2022-10-30T18:38:50.364Z,73.32
2022-10-30T18:41:24.940Z,73.50
2022-10-30T18:43:52.735Z,73.55
2022-10-30T18:46:20.496Z,73.54
2022-10-30T18:48:49.566Z,73.47
2022-10-30T18:51:19.107Z,73.41
2022-10-30T18:53:51.793Z,73.42
2022-10-30T18:56:24.056Z,73.45
2022-10-30T18:58:56.434Z,73.08
2022-10-30T19:01:30.739Z,73.27
2022-10-30T19:04:00.965Z,72.95
2022-10-30T19:06:29.449Z,73.17
2022-10-30T19:08:57.202Z,72.77
2022-10-30T19:11:25.843Z,72.80
2022-10-30T19:13:55.130Z,72.78
2022-10-30T19:16:24.456Z,72.73
2022-10-30T19:18:52.647Z,72.55
2022-10-30T19:21:23.294Z,72.94
2022-10-30T19:23:51.278Z,72.71
2022-10-30T19:26:18.989Z,72.79
2022-10-30T19:28:46.855Z,73.08
2022-10-30T19:31:19.093Z,73.33
2022-10-30T19:33:51.424Z,73.46
2022-10-30T19:36:30.245Z,73.01
2022-10-30T19:38:58.086Z,73.26
2022-10-30T19:41:26.199Z,73.31
2022-10-30T19:43:54.233Z,73.86
2022-10-30T19:46:22.548Z,73.78
2022-10-30T19:48:59.270Z,74.00
2022-10-30T19:51:29.241Z,73.95
2022-10-30T19:53:57.171Z,73.82
2022-10-30T19:56:24.992Z,74.05
2022-10-30T19:58:52.820Z,73.90
2022-10-30T20:01:20.669Z,74.14
2022-10-30T20:03:48.542Z,74.32
2022-10-30T20:06:19.247Z,74.16
2022-10-30T20:08:48.410Z,74.13
2022-10-30T20:11:16.036Z,74.21
2022-10-30T20:13:43.948Z,74.32
2022-10-30T20:16:12.205Z,74.02
2022-10-30T20:18:39.916Z,74.16
2022-10-30T20:21:11.035Z,74.33
2022-10-30T20:23:41.811Z,74.55
2022-10-30T20:26:23.487Z,74.79
2022-10-30T20:28:51.753Z,74.79
2022-10-30T20:31:19.637Z,74.85
2022-10-30T20:33:53.442Z,75.13
2022-10-30T20:36:21.387Z,75.46
2022-10-30T20:38:49.187Z,75.74
2022-10-30T20:41:23.213Z,75.38
2022-10-30T20:43:50.966Z,75.54
2022-10-30T20:46:19.246Z,75.46
2022-10-30T20:48:47.181Z,75.90
2022-10-30T20:51:17.515Z,75.88
2022-10-30T20:53:45.269Z,75.52
2022-10-30T20:56:16.488Z,75.98
2022-10-30T20:58:45.631Z,75.63
2022-10-30T21:01:14.066Z,75.89
2022-10-30T21:03:47.963Z,75.95
2022-10-30T21:06:15.717Z,75.70
2022-10-30T21:08:43.627Z,76.32
2022-10-30T21:11:11.410Z,76.34
2022-10-30T21:13:39.080Z,76.23
2022-10-30T21:16:11.299Z,75.88
2022-10-30T21:18:39.132Z,75.35
2022-10-30T21:21:11.497Z,75.43
2022-10-30T21:23:39.343Z,75.30
2022-10-30T21:26:10.932Z,75.06
2022-10-30T21:28:39.298Z,74.62
2022-10-30T21:31:09.110Z,74.79
2022-10-30T21:33:39.008Z,74.46
2022-10-30T21:36:12.061Z,74.41
2022-10-30T21:38:42.645Z,74.18
2022-10-30T21:41:10.981Z,74.31
2022-10-30T21:43:41.235Z,74.05
2022-10-30T21:46:09.689Z,74.14
2022-10-30T21:48:39.322Z,74.01
2022-10-30T21:51:12.198Z,73.89
2022-10-30T21:53:42.554Z,74.09
2022-10-30T21:56:12.222Z,74.04
2022-10-30T21:58:40.302Z,74.34
2022-10-30T22:01:08.270Z,74.03
2022-10-30T22:03:40.548Z,74.17
2022-10-30T22:06:11.873Z,74.28
2022-10-30T22:08:40.095Z,74.17
2022-10-30T22:11:10.119Z,73.94
2022-10-30T22:13:38.929Z,74.26
2022-10-30T22:16:08.411Z,74.29
2022-10-30T22:18:41.245Z,73.99
2022-10-30T22:21:11.236Z,74.43
2022-10-30T22:23:40.341Z,74.32
2022-10-30T22:26:11.364Z,74.26
2022-10-30T22:28:39.165Z,74.32
2022-10-30T22:31:11.878Z,73.87
2022-10-30T22:33:42.015Z,74.19
2022-10-30T22:36:16.582Z,74.38
2022-10-30T22:38:45.807Z,73.94
2022-10-30T22:41:15.821Z,73.85
2022-10-30T22:43:45.173Z,73.73
2022-10-30T22:46:14.325Z,73.63
2022-10-30T22:48:44.078Z,73.54
2022-10-30T22:51:15.482Z,73.71
2022-10-30T22:53:48.902Z,73.35
2022-10-30T22:56:18.647Z,73.60
2022-10-30T22:58:49.795Z,73.63
2022-10-30T23:01:23.340Z,73.42
2022-10-30T23:03:53.248Z,73.50
2022-10-30T23:06:21.059Z,73.44
2022-10-30T23:08:49.325Z,73.51
2022-10-30T23:11:17.264Z,73.33
2022-10-30T23:13:46.433Z,73.89
2022-10-30T23:16:17.179Z,73.82
2022-10-30T23:18:45.483Z,73.65
2022-10-30T23:21:17.144Z,73.86
2022-10-30T23:23:45.633Z,74.04
2022-10-30T23:26:17.829Z,73.97
2022-10-30T23:28:46.599Z,74.30
2022-10-30T23:31:19.876Z,74.39
2022-10-30T23:33:48.534Z,74.53
2022-10-30T23:36:19.073Z,74.95
2022-10-30T23:38:52.942Z,74.66
2022-10-30T23:41:21.143Z,74.59
2022-10-30T23:43:49.572Z,74.94
2022-10-30T23:46:17.375Z,75.00
2022-10-30T23:48:48.274Z,74.98
2022-10-30T23:51:18.762Z,74.93
2022-10-30T23:53:53.110Z,74.61
2022-10-30T23:56:21.030Z,74.51
2022-10-30T23:58:58.641Z,74.14
